sensor_id;sensor_type;location;lat;lon;timestamp;P1;durP1;ratioP1;P2;durP2;ratioP2
4102;SDS011;2065;49.790;9.620;2023-02-28T00:00:41;4.00;;;3.60;;
4102;SDS011;2065;49.790;9.620;2023-02-28T00:03:08;4.40;;;3.30;;
4102;SDS011;2065;49.790;9.620;2023-02-28T00:05:35;5.50;;;3.87;;
4102;SDS011;2065;49.790;9.620;2023-02-28T00:08:02;4.50;;;2.97;;
4102;SDS011;2065;49.790;9.620;2023-02-28T00:10:29;5.20;;;3.50;;
4102;SDS011;2065;49.790;9.620;2023-02-28T00:13:00;6.17;;;3.50;;
4102;SDS011;2065;49.790;9.620;2023-02-28T00:15:30;6.07;;;3.77;;
4102;SDS011;2065;49.790;9.620;2023-02-28T00:17:58;7.37;;;4.60;;
4102;SDS011;2065;49.790;9.620;2023-02-28T00:20:25;5.43;;;3.70;;
4102;SDS011;2065;49.790;9.620;2023-02-28T00:22:52;6.00;;;4.07;;
4102;SDS011;2065;49.790;9.620;2023-02-28T00:25:20;5.00;;;3.50;;
4102;SDS011;2065;49.790;9.620;2023-02-28T00:27:49;4.07;;;3.70;;
4102;SDS011;2065;49.790;9.620;2023-02-28T00:32:46;6.20;;;4.20;;
4102;SDS011;2065;49.790;9.620;2023-02-28T00:35:13;4.60;;;3.57;;
4102;SDS011;2065;49.790;9.620;2023-02-28T00:37:41;4.30;;;3.70;;
4102;SDS011;2065;49.790;9.620;2023-02-28T00:40:08;4.30;;;3.30;;
4102;SDS011;2065;49.790;9.620;2023-02-28T00:42:37;3.60;;;3.30;;
4102;SDS011;2065;49.790;9.620;2023-02-28T00:45:04;4.70;;;3.50;;
4102;SDS011;2065;49.790;9.620;2023-02-28T00:47:34;3.60;;;2.90;;
4102;SDS011;2065;49.790;9.620;2023-02-28T00:50:02;5.57;;;3.50;;
4102;SDS011;2065;49.790;9.620;2023-02-28T00:52:29;6.60;;;3.90;;
4102;SDS011;2065;49.790;9.620;2023-02-28T00:54:57;4.90;;;4.17;;
4102;SDS011;2065;49.790;9.620;2023-02-28T00:57:24;3.87;;;3.17;;
4102;SDS011;2065;49.790;9.620;2023-02-28T00:59:51;4.43;;;3.57;;
4102;SDS011;2065;49.790;9.620;2023-02-28T01:02:20;5.00;;;3.60;;
4102;SDS011;2065;49.790;9.620;2023-02-28T01:04:49;4.47;;;3.60;;
4102;SDS011;2065;49.790;9.620;2023-02-28T01:07:15;4.50;;;3.37;;
4102;SDS011;2065;49.790;9.620;2023-02-28T01:09:42;7.70;;;3.57;;
4102;SDS011;2065;49.790;9.620;2023-02-28T01:12:09;6.93;;;4.40;;
4102;SDS011;2065;49.790;9.620;2023-02-28T01:14:36;6.40;;;3.30;;
4102;SDS011;2065;49.790;9.620;2023-02-28T01:17:04;6.93;;;3.73;;
4102;SDS011;2065;49.790;9.620;2023-02-28T01:19:31;3.90;;;3.37;;
4102;SDS011;2065;49.790;9.620;2023-02-28T01:22:01;5.10;;;3.13;;
4102;SDS011;2065;49.790;9.620;2023-02-28T01:24:29;5.30;;;3.80;;
4102;SDS011;2065;49.790;9.620;2023-02-28T01:26:56;4.70;;;3.80;;
4102;SDS011;2065;49.790;9.620;2023-02-28T01:29:23;3.73;;;3.40;;
4102;SDS011;2065;49.790;9.620;2023-02-28T01:31:51;4.13;;;3.30;;
4102;SDS011;2065;49.790;9.620;2023-02-28T01:34:19;4.37;;;3.70;;
4102;SDS011;2065;49.790;9.620;2023-02-28T01:36:46;5.53;;;4.07;;
4102;SDS011;2065;49.790;9.620;2023-02-28T01:39:14;5.77;;;3.77;;
4102;SDS011;2065;49.790;9.620;2023-02-28T01:41:41;6.00;;;3.53;;
4102;SDS011;2065;49.790;9.620;2023-02-28T01:47:08;6.83;;;3.60;;
4102;SDS011;2065;49.790;9.620;2023-02-28T01:49:35;5.30;;;3.77;;
4102;SDS011;2065;49.790;9.620;2023-02-28T01:52:03;5.57;;;4.13;;
4102;SDS011;2065;49.790;9.620;2023-02-28T01:54:31;4.60;;;3.83;;
4102;SDS011;2065;49.790;9.620;2023-02-28T01:57:03;4.40;;;3.60;;
4102;SDS011;2065;49.790;9.620;2023-02-28T01:59:34;7.43;;;3.60;;
4102;SDS011;2065;49.790;9.620;2023-02-28T02:02:04;5.67;;;4.00;;
4102;SDS011;2065;49.790;9.620;2023-02-28T02:04:32;8.67;;;4.27;;
4102;SDS011;2065;49.790;9.620;2023-02-28T02:07:04;4.47;;;3.90;;
4102;SDS011;2065;49.790;9.620;2023-02-28T02:09:33;7.00;;;4.10;;
4102;SDS011;2065;49.790;9.620;2023-02-28T02:12:00;4.03;;;2.97;;
4102;SDS011;2065;49.790;9.620;2023-02-28T02:14:43;10.87;;;4.33;;
4102;SDS011;2065;49.790;9.620;2023-02-28T02:17:26;5.13;;;3.70;;
4102;SDS011;2065;49.790;9.620;2023-02-28T02:20:13;5.83;;;3.10;;
4102;SDS011;2065;49.790;9.620;2023-02-28T02:25:51;4.07;;;3.17;;
4102;SDS011;2065;49.790;9.620;2023-02-28T02:28:24;6.07;;;4.37;;
4102;SDS011;2065;49.790;9.620;2023-02-28T02:31:26;8.20;;;4.33;;
4102;SDS011;2065;49.790;9.620;2023-02-28T02:37:15;5.33;;;3.77;;
4102;SDS011;2065;49.790;9.620;2023-02-28T02:40:00;5.67;;;4.20;;
4102;SDS011;2065;49.790;9.620;2023-02-28T02:42:36;6.70;;;3.87;;
4102;SDS011;2065;49.790;9.620;2023-02-28T02:45:09;6.07;;;4.00;;
4102;SDS011;2065;49.790;9.620;2023-02-28T02:47:41;5.80;;;3.80;;
4102;SDS011;2065;49.790;9.620;2023-02-28T02:50:11;3.50;;;3.20;;
4102;SDS011;2065;49.790;9.620;2023-02-28T02:52:45;4.70;;;3.80;;
4102;SDS011;2065;49.790;9.620;2023-02-28T02:55:15;6.17;;;3.43;;
4102;SDS011;2065;49.790;9.620;2023-02-28T02:57:46;4.40;;;4.00;;
4102;SDS011;2065;49.790;9.620;2023-02-28T03:00:17;4.23;;;3.87;;
4102;SDS011;2065;49.790;9.620;2023-02-28T03:02:47;5.17;;;3.67;;
4102;SDS011;2065;49.790;9.620;2023-02-28T03:05:19;5.70;;;4.33;;
4102;SDS011;2065;49.790;9.620;2023-02-28T03:07:51;5.00;;;4.50;;
4102;SDS011;2065;49.790;9.620;2023-02-28T03:10:35;5.67;;;4.17;;
4102;SDS011;2065;49.790;9.620;2023-02-28T03:13:08;4.30;;;3.90;;
4102;SDS011;2065;49.790;9.620;2023-02-28T03:15:48;12.30;;;3.83;;
4102;SDS011;2065;49.790;9.620;2023-02-28T03:18:29;4.60;;;3.97;;
4102;SDS011;2065;49.790;9.620;2023-02-28T03:21:08;7.50;;;4.20;;
4102;SDS011;2065;49.790;9.620;2023-02-28T03:23:44;5.83;;;3.53;;
4102;SDS011;2065;49.790;9.620;2023-02-28T03:26:17;11.17;;;3.97;;
4102;SDS011;2065;49.790;9.620;2023-02-28T03:28:50;6.23;;;4.27;;
4102;SDS011;2065;49.790;9.620;2023-02-28T03:31:23;9.07;;;4.33;;
4102;SDS011;2065;49.790;9.620;2023-02-28T03:33:55;7.47;;;4.03;;
4102;SDS011;2065;49.790;9.620;2023-02-28T03:36:28;8.33;;;5.03;;
4102;SDS011;2065;49.790;9.620;2023-02-28T03:38:58;7.20;;;4.43;;
4102;SDS011;2065;49.790;9.620;2023-02-28T03:41:30;9.60;;;4.63;;
4102;SDS011;2065;49.790;9.620;2023-02-28T03:44:03;6.60;;;4.30;;
4102;SDS011;2065;49.790;9.620;2023-02-28T03:46:36;5.70;;;3.30;;
4102;SDS011;2065;49.790;9.620;2023-02-28T03:49:08;8.33;;;4.37;;
4102;SDS011;2065;49.790;9.620;2023-02-28T03:51:40;9.57;;;4.20;;
4102;SDS011;2065;49.790;9.620;2023-02-28T03:54:12;5.30;;;3.57;;
4102;SDS011;2065;49.790;9.620;2023-02-28T03:56:45;4.10;;;3.43;;
4102;SDS011;2065;49.790;9.620;2023-02-28T03:59:18;4.50;;;4.10;;
4102;SDS011;2065;49.790;9.620;2023-02-28T04:01:48;5.97;;;3.90;;
4102;SDS011;2065;49.790;9.620;2023-02-28T04:04:17;6.53;;;3.80;;
4102;SDS011;2065;49.790;9.620;2023-02-28T04:06:44;5.43;;;3.70;;
4102;SDS011;2065;49.790;9.620;2023-02-28T04:09:13;7.60;;;4.90;;
4102;SDS011;2065;49.790;9.620;2023-02-28T04:11:41;6.13;;;3.77;;
4102;SDS011;2065;49.790;9.620;2023-02-28T04:14:10;7.57;;;4.70;;
4102;SDS011;2065;49.790;9.620;2023-02-28T04:16:38;7.40;;;5.23;;
4102;SDS011;2065;49.790;9.620;2023-02-28T04:19:07;5.00;;;4.00;;
4102;SDS011;2065;49.790;9.620;2023-02-28T04:21:36;4.33;;;3.60;;
4102;SDS011;2065;49.790;9.620;2023-02-28T04:24:05;7.90;;;4.20;;
4102;SDS011;2065;49.790;9.620;2023-02-28T04:26:34;9.23;;;4.70;;
4102;SDS011;2065;49.790;9.620;2023-02-28T04:29:03;7.20;;;4.27;;
4102;SDS011;2065;49.790;9.620;2023-02-28T04:31:31;6.83;;;4.30;;
4102;SDS011;2065;49.790;9.620;2023-02-28T04:33:58;9.07;;;5.83;;
4102;SDS011;2065;49.790;9.620;2023-02-28T04:36:25;5.30;;;4.53;;
4102;SDS011;2065;49.790;9.620;2023-02-28T04:38:52;7.03;;;4.20;;
4102;SDS011;2065;49.790;9.620;2023-02-28T04:41:20;10.27;;;5.73;;
4102;SDS011;2065;49.790;9.620;2023-02-28T04:43:50;5.80;;;4.53;;
4102;SDS011;2065;49.790;9.620;2023-02-28T04:46:17;8.97;;;4.50;;
4102;SDS011;2065;49.790;9.620;2023-02-28T04:48:45;7.43;;;4.17;;
4102;SDS011;2065;49.790;9.620;2023-02-28T04:51:13;5.00;;;4.43;;
4102;SDS011;2065;49.790;9.620;2023-02-28T04:53:42;8.13;;;4.97;;
4102;SDS011;2065;49.790;9.620;2023-02-28T04:56:10;10.00;;;5.00;;
4102;SDS011;2065;49.790;9.620;2023-02-28T04:58:38;7.20;;;4.50;;
4102;SDS011;2065;49.790;9.620;2023-02-28T05:01:15;6.70;;;3.90;;
4102;SDS011;2065;49.790;9.620;2023-02-28T05:03:44;5.67;;;4.33;;
4102;SDS011;2065;49.790;9.620;2023-02-28T05:06:11;8.80;;;5.90;;
4102;SDS011;2065;49.790;9.620;2023-02-28T05:08:39;13.20;;;5.77;;
4102;SDS011;2065;49.790;9.620;2023-02-28T05:11:07;7.03;;;5.13;;
4102;SDS011;2065;49.790;9.620;2023-02-28T05:13:39;7.20;;;6.00;;
4102;SDS011;2065;49.790;9.620;2023-02-28T05:16:08;7.40;;;5.50;;
4102;SDS011;2065;49.790;9.620;2023-02-28T05:18:35;7.33;;;5.17;;
4102;SDS011;2065;49.790;9.620;2023-02-28T05:21:02;9.63;;;5.77;;
4102;SDS011;2065;49.790;9.620;2023-02-28T05:23:29;11.10;;;6.27;;
4102;SDS011;2065;49.790;9.620;2023-02-28T05:25:56;10.70;;;4.97;;
4102;SDS011;2065;49.790;9.620;2023-02-28T05:28:23;7.80;;;4.90;;
4102;SDS011;2065;49.790;9.620;2023-02-28T05:30:50;6.07;;;4.93;;
4102;SDS011;2065;49.790;9.620;2023-02-28T05:33:18;7.40;;;5.50;;
4102;SDS011;2065;49.790;9.620;2023-02-28T05:35:45;8.60;;;5.03;;
4102;SDS011;2065;49.790;9.620;2023-02-28T05:38:12;10.80;;;7.10;;
4102;SDS011;2065;49.790;9.620;2023-02-28T05:40:39;8.80;;;5.83;;
4102;SDS011;2065;49.790;9.620;2023-02-28T05:43:08;15.83;;;7.00;;
4102;SDS011;2065;49.790;9.620;2023-02-28T05:45:36;8.67;;;4.70;;
4102;SDS011;2065;49.790;9.620;2023-02-28T05:48:04;28.27;;;13.00;;
4102;SDS011;2065;49.790;9.620;2023-02-28T05:50:32;23.40;;;10.70;;
4102;SDS011;2065;49.790;9.620;2023-02-28T05:52:59;12.40;;;8.30;;
4102;SDS011;2065;49.790;9.620;2023-02-28T05:55:26;9.97;;;5.60;;
4102;SDS011;2065;49.790;9.620;2023-02-28T05:57:53;5.40;;;4.03;;
4102;SDS011;2065;49.790;9.620;2023-02-28T06:00:21;4.47;;;3.67;;
4102;SDS011;2065;49.790;9.620;2023-02-28T06:02:48;10.70;;;4.90;;
4102;SDS011;2065;49.790;9.620;2023-02-28T06:05:17;10.23;;;4.70;;
4102;SDS011;2065;49.790;9.620;2023-02-28T06:07:45;6.20;;;3.80;;
4102;SDS011;2065;49.790;9.620;2023-02-28T06:10:13;6.13;;;4.10;;
4102;SDS011;2065;49.790;9.620;2023-02-28T06:12:40;5.00;;;4.47;;
4102;SDS011;2065;49.790;9.620;2023-02-28T06:15:09;8.33;;;4.40;;
4102;SDS011;2065;49.790;9.620;2023-02-28T06:17:38;8.50;;;3.87;;
4102;SDS011;2065;49.790;9.620;2023-02-28T06:20:06;7.47;;;4.30;;
4102;SDS011;2065;49.790;9.620;2023-02-28T06:22:34;5.93;;;4.70;;
4102;SDS011;2065;49.790;9.620;2023-02-28T06:25:03;6.83;;;4.80;;
4102;SDS011;2065;49.790;9.620;2023-02-28T06:27:30;5.97;;;4.57;;
4102;SDS011;2065;49.790;9.620;2023-02-28T06:29:58;6.10;;;4.60;;
4102;SDS011;2065;49.790;9.620;2023-02-28T06:32:25;5.83;;;4.23;;
4102;SDS011;2065;49.790;9.620;2023-02-28T06:34:52;4.53;;;3.63;;
4102;SDS011;2065;49.790;9.620;2023-02-28T06:37:19;5.70;;;4.00;;
4102;SDS011;2065;49.790;9.620;2023-02-28T06:39:46;6.93;;;4.00;;
4102;SDS011;2065;49.790;9.620;2023-02-28T06:42:14;4.20;;;3.80;;
4102;SDS011;2065;49.790;9.620;2023-02-28T06:44:41;7.63;;;3.90;;
4102;SDS011;2065;49.790;9.620;2023-02-28T06:47:08;6.50;;;4.07;;
4102;SDS011;2065;49.790;9.620;2023-02-28T06:49:35;4.00;;;3.60;;
4102;SDS011;2065;49.790;9.620;2023-02-28T06:52:04;6.57;;;4.00;;
4102;SDS011;2065;49.790;9.620;2023-02-28T06:54:31;8.43;;;4.37;;
4102;SDS011;2065;49.790;9.620;2023-02-28T06:56:58;7.70;;;5.33;;
4102;SDS011;2065;49.790;9.620;2023-02-28T06:59:26;5.37;;;3.90;;
4102;SDS011;2065;49.790;9.620;2023-02-28T07:01:53;6.67;;;4.87;;
4102;SDS011;2065;49.790;9.620;2023-02-28T07:04:21;9.37;;;4.30;;
4102;SDS011;2065;49.790;9.620;2023-02-28T07:06:49;5.30;;;4.10;;
4102;SDS011;2065;49.790;9.620;2023-02-28T07:09:16;6.20;;;3.20;;
4102;SDS011;2065;49.790;9.620;2023-02-28T07:11:44;5.30;;;4.27;;
4102;SDS011;2065;49.790;9.620;2023-02-28T07:14:11;6.23;;;3.77;;
4102;SDS011;2065;49.790;9.620;2023-02-28T07:16:39;5.67;;;4.03;;
4102;SDS011;2065;49.790;9.620;2023-02-28T07:19:06;5.20;;;3.50;;
4102;SDS011;2065;49.790;9.620;2023-02-28T07:21:33;5.03;;;3.70;;
4102;SDS011;2065;49.790;9.620;2023-02-28T07:24:00;6.97;;;3.87;;
4102;SDS011;2065;49.790;9.620;2023-02-28T07:26:26;3.20;;;2.77;;
4102;SDS011;2065;49.790;9.620;2023-02-28T07:28:53;5.20;;;3.37;;
4102;SDS011;2065;49.790;9.620;2023-02-28T07:31:20;5.50;;;3.60;;
4102;SDS011;2065;49.790;9.620;2023-02-28T07:33:49;4.30;;;3.33;;
4102;SDS011;2065;49.790;9.620;2023-02-28T07:36:16;7.90;;;3.83;;
4102;SDS011;2065;49.790;9.620;2023-02-28T07:38:45;5.90;;;3.60;;
4102;SDS011;2065;49.790;9.620;2023-02-28T07:41:15;7.47;;;4.10;;
4102;SDS011;2065;49.790;9.620;2023-02-28T07:43:42;6.87;;;4.10;;
4102;SDS011;2065;49.790;9.620;2023-02-28T07:46:10;8.50;;;4.30;;
4102;SDS011;2065;49.790;9.620;2023-02-28T07:48:40;4.13;;;3.50;;
4102;SDS011;2065;49.790;9.620;2023-02-28T07:51:09;4.23;;;3.83;;
4102;SDS011;2065;49.790;9.620;2023-02-28T07:53:36;4.50;;;3.70;;
4102;SDS011;2065;49.790;9.620;2023-02-28T07:56:03;9.97;;;4.10;;
4102;SDS011;2065;49.790;9.620;2023-02-28T07:58:30;7.47;;;4.30;;
4102;SDS011;2065;49.790;9.620;2023-02-28T08:00:57;6.43;;;4.50;;
4102;SDS011;2065;49.790;9.620;2023-02-28T08:03:31;6.67;;;3.70;;
4102;SDS011;2065;49.790;9.620;2023-02-28T08:05:58;9.63;;;5.60;;
4102;SDS011;2065;49.790;9.620;2023-02-28T08:08:26;7.63;;;5.37;;
4102;SDS011;2065;49.790;9.620;2023-02-28T08:10:54;4.00;;;3.60;;
4102;SDS011;2065;49.790;9.620;2023-02-28T08:13:21;10.40;;;5.17;;
4102;SDS011;2065;49.790;9.620;2023-02-28T08:15:48;6.20;;;4.70;;
4102;SDS011;2065;49.790;9.620;2023-02-28T08:18:15;8.27;;;5.20;;
4102;SDS011;2065;49.790;9.620;2023-02-28T08:20:41;6.50;;;3.93;;
4102;SDS011;2065;49.790;9.620;2023-02-28T08:23:08;6.03;;;4.43;;
4102;SDS011;2065;49.790;9.620;2023-02-28T08:25:37;8.77;;;4.97;;
4102;SDS011;2065;49.790;9.620;2023-02-28T08:28:04;10.90;;;5.30;;
4102;SDS011;2065;49.790;9.620;2023-02-28T08:30:30;13.60;;;5.60;;
4102;SDS011;2065;49.790;9.620;2023-02-28T08:32:57;12.23;;;5.20;;
4102;SDS011;2065;49.790;9.620;2023-02-28T08:35:24;9.83;;;5.20;;
4102;SDS011;2065;49.790;9.620;2023-02-28T08:37:51;11.60;;;5.47;;
4102;SDS011;2065;49.790;9.620;2023-02-28T08:40:18;12.13;;;5.23;;
4102;SDS011;2065;49.790;9.620;2023-02-28T08:42:47;8.70;;;5.17;;
4102;SDS011;2065;49.790;9.620;2023-02-28T08:45:14;10.60;;;4.33;;
4102;SDS011;2065;49.790;9.620;2023-02-28T08:47:41;6.90;;;4.40;;
4102;SDS011;2065;49.790;9.620;2023-02-28T08:50:08;8.73;;;4.97;;
4102;SDS011;2065;49.790;9.620;2023-02-28T08:52:36;16.83;;;6.60;;
4102;SDS011;2065;49.790;9.620;2023-02-28T08:55:03;8.10;;;5.40;;
4102;SDS011;2065;49.790;9.620;2023-02-28T08:57:31;9.47;;;5.37;;
4102;SDS011;2065;49.790;9.620;2023-02-28T09:00:00;8.37;;;5.10;;
4102;SDS011;2065;49.790;9.620;2023-02-28T09:02:29;7.90;;;5.20;;
4102;SDS011;2065;49.790;9.620;2023-02-28T09:04:57;7.40;;;5.20;;
4102;SDS011;2065;49.790;9.620;2023-02-28T09:07:24;6.87;;;4.57;;
4102;SDS011;2065;49.790;9.620;2023-02-28T09:09:51;9.83;;;5.63;;
4102;SDS011;2065;49.790;9.620;2023-02-28T09:12:21;8.20;;;5.40;;
4102;SDS011;2065;49.790;9.620;2023-02-28T09:14:47;14.00;;;6.10;;
4102;SDS011;2065;49.790;9.620;2023-02-28T09:17:16;10.33;;;5.13;;
4102;SDS011;2065;49.790;9.620;2023-02-28T09:19:43;7.67;;;4.40;;
4102;SDS011;2065;49.790;9.620;2023-02-28T09:22:10;8.33;;;5.00;;
4102;SDS011;2065;49.790;9.620;2023-02-28T09:24:38;8.20;;;4.80;;
4102;SDS011;2065;49.790;9.620;2023-02-28T09:27:05;10.43;;;5.93;;
4102;SDS011;2065;49.790;9.620;2023-02-28T09:29:32;10.43;;;5.47;;
4102;SDS011;2065;49.790;9.620;2023-02-28T09:32:00;6.60;;;4.50;;
4102;SDS011;2065;49.790;9.620;2023-02-28T09:34:29;6.20;;;4.57;;
4102;SDS011;2065;49.790;9.620;2023-02-28T09:36:56;8.07;;;5.73;;
4102;SDS011;2065;49.790;9.620;2023-02-28T09:39:23;10.90;;;6.07;;
4102;SDS011;2065;49.790;9.620;2023-02-28T09:41:52;7.83;;;4.53;;
4102;SDS011;2065;49.790;9.620;2023-02-28T09:44:21;9.33;;;5.23;;
4102;SDS011;2065;49.790;9.620;2023-02-28T09:46:55;6.53;;;4.53;;
4102;SDS011;2065;49.790;9.620;2023-02-28T09:49:28;9.43;;;5.50;;
4102;SDS011;2065;49.790;9.620;2023-02-28T09:52:03;9.90;;;5.37;;
4102;SDS011;2065;49.790;9.620;2023-02-28T09:54:34;9.03;;;5.93;;
4102;SDS011;2065;49.790;9.620;2023-02-28T09:57:02;8.43;;;5.30;;
4102;SDS011;2065;49.790;9.620;2023-02-28T09:59:36;7.70;;;5.67;;
4102;SDS011;2065;49.790;9.620;2023-02-28T10:02:13;10.30;;;4.57;;
4102;SDS011;2065;49.790;9.620;2023-02-28T10:04:49;8.00;;;5.23;;
4102;SDS011;2065;49.790;9.620;2023-02-28T10:07:23;7.40;;;5.97;;
4102;SDS011;2065;49.790;9.620;2023-02-28T10:10:04;9.10;;;5.97;;
4102;SDS011;2065;49.790;9.620;2023-02-28T10:12:41;8.00;;;5.13;;
4102;SDS011;2065;49.790;9.620;2023-02-28T10:15:12;7.27;;;5.70;;
4102;SDS011;2065;49.790;9.620;2023-02-28T10:17:41;7.70;;;5.73;;
4102;SDS011;2065;49.790;9.620;2023-02-28T10:20:14;9.00;;;5.50;;
4102;SDS011;2065;49.790;9.620;2023-02-28T10:22:50;9.97;;;5.57;;
4102;SDS011;2065;49.790;9.620;2023-02-28T10:25:21;9.53;;;5.40;;
4102;SDS011;2065;49.790;9.620;2023-02-28T10:27:49;7.10;;;5.63;;
4102;SDS011;2065;49.790;9.620;2023-02-28T10:30:19;9.23;;;5.77;;
4102;SDS011;2065;49.790;9.620;2023-02-28T10:32:47;9.83;;;5.50;;
4102;SDS011;2065;49.790;9.620;2023-02-28T10:35:20;13.37;;;8.43;;
4102;SDS011;2065;49.790;9.620;2023-02-28T10:37:49;9.27;;;5.10;;
4102;SDS011;2065;49.790;9.620;2023-02-28T10:40:27;10.67;;;6.10;;
4102;SDS011;2065;49.790;9.620;2023-02-28T10:42:58;8.00;;;6.07;;
4102;SDS011;2065;49.790;9.620;2023-02-28T10:45:26;11.43;;;6.83;;
4102;SDS011;2065;49.790;9.620;2023-02-28T10:47:57;9.70;;;6.53;;
4102;SDS011;2065;49.790;9.620;2023-02-28T10:50:30;11.33;;;7.00;;
4102;SDS011;2065;49.790;9.620;2023-02-28T10:55:58;9.80;;;6.40;;
4102;SDS011;2065;49.790;9.620;2023-02-28T10:58:27;8.67;;;5.93;;
4102;SDS011;2065;49.790;9.620;2023-02-28T11:00:55;8.33;;;5.90;;
4102;SDS011;2065;49.790;9.620;2023-02-28T11:03:23;8.90;;;6.07;;
4102;SDS011;2065;49.790;9.620;2023-02-28T11:05:56;9.37;;;6.27;;
4102;SDS011;2065;49.790;9.620;2023-02-28T11:08:24;6.13;;;5.53;;
4102;SDS011;2065;49.790;9.620;2023-02-28T11:10:54;10.87;;;6.10;;
4102;SDS011;2065;49.790;9.620;2023-02-28T11:13:24;12.63;;;7.10;;
4102;SDS011;2065;49.790;9.620;2023-02-28T11:15:54;10.37;;;6.60;;
4102;SDS011;2065;49.790;9.620;2023-02-28T11:18:24;11.00;;;6.13;;
4102;SDS011;2065;49.790;9.620;2023-02-28T11:20:57;10.87;;;6.73;;
4102;SDS011;2065;49.790;9.620;2023-02-28T11:23:27;11.20;;;6.43;;
4102;SDS011;2065;49.790;9.620;2023-02-28T11:25:57;11.67;;;6.40;;
4102;SDS011;2065;49.790;9.620;2023-02-28T11:28:27;9.40;;;5.57;;
4102;SDS011;2065;49.790;9.620;2023-02-28T11:31:00;6.07;;;5.40;;
4102;SDS011;2065;49.790;9.620;2023-02-28T11:33:29;9.60;;;6.30;;
4102;SDS011;2065;49.790;9.620;2023-02-28T11:36:01;9.83;;;6.17;;
4102;SDS011;2065;49.790;9.620;2023-02-28T11:38:32;8.57;;;6.00;;
4102;SDS011;2065;49.790;9.620;2023-02-28T11:41:04;10.77;;;6.30;;
4102;SDS011;2065;49.790;9.620;2023-02-28T11:43:43;7.20;;;6.07;;
4102;SDS011;2065;49.790;9.620;2023-02-28T11:46:24;9.60;;;6.03;;
4102;SDS011;2065;49.790;9.620;2023-02-28T11:48:58;10.30;;;6.90;;
4102;SDS011;2065;49.790;9.620;2023-02-28T11:51:35;8.07;;;5.77;;
4102;SDS011;2065;49.790;9.620;2023-02-28T11:57:03;8.97;;;6.17;;
4102;SDS011;2065;49.790;9.620;2023-02-28T11:59:48;12.13;;;6.93;;
4102;SDS011;2065;49.790;9.620;2023-02-28T12:02:28;9.90;;;7.10;;
4102;SDS011;2065;49.790;9.620;2023-02-28T12:05:11;8.20;;;5.50;;
4102;SDS011;2065;49.790;9.620;2023-02-28T12:07:55;8.70;;;6.73;;
4102;SDS011;2065;49.790;9.620;2023-02-28T12:10:35;7.53;;;5.30;;
4102;SDS011;2065;49.790;9.620;2023-02-28T12:13:12;9.10;;;6.10;;
4102;SDS011;2065;49.790;9.620;2023-02-28T12:15:53;12.67;;;8.03;;
4102;SDS011;2065;49.790;9.620;2023-02-28T12:18:34;15.40;;;8.67;;
4102;SDS011;2065;49.790;9.620;2023-02-28T12:21:15;11.53;;;7.63;;
4102;SDS011;2065;49.790;9.620;2023-02-28T12:24:06;9.60;;;6.93;;
4102;SDS011;2065;49.790;9.620;2023-02-28T12:26:45;13.50;;;7.40;;
4102;SDS011;2065;49.790;9.620;2023-02-28T12:29:16;14.70;;;6.10;;
4102;SDS011;2065;49.790;9.620;2023-02-28T12:31:49;8.87;;;6.63;;
4102;SDS011;2065;49.790;9.620;2023-02-28T12:34:21;10.40;;;6.70;;
4102;SDS011;2065;49.790;9.620;2023-02-28T12:36:51;8.23;;;5.87;;
4102;SDS011;2065;49.790;9.620;2023-02-28T12:39:23;9.03;;;6.03;;
4102;SDS011;2065;49.790;9.620;2023-02-28T12:41:56;11.40;;;6.57;;
4102;SDS011;2065;49.790;9.620;2023-02-28T12:44:28;10.70;;;6.93;;
4102;SDS011;2065;49.790;9.620;2023-02-28T12:47:00;6.90;;;5.53;;
4102;SDS011;2065;49.790;9.620;2023-02-28T12:49:31;9.27;;;6.00;;
4102;SDS011;2065;49.790;9.620;2023-02-28T12:52:03;7.63;;;4.30;;
4102;SDS011;2065;49.790;9.620;2023-02-28T12:54:35;9.77;;;6.13;;
4102;SDS011;2065;49.790;9.620;2023-02-28T12:57:09;9.10;;;6.20;;
4102;SDS011;2065;49.790;9.620;2023-02-28T12:59:42;12.03;;;6.00;;
4102;SDS011;2065;49.790;9.620;2023-02-28T13:05:30;7.70;;;6.23;;
4102;SDS011;2065;49.790;9.620;2023-02-28T13:08:24;15.80;;;12.53;;
4102;SDS011;2065;49.790;9.620;2023-02-28T13:11:07;9.00;;;5.93;;
4102;SDS011;2065;49.790;9.620;2023-02-28T13:13:55;11.73;;;6.30;;
4102;SDS011;2065;49.790;9.620;2023-02-28T13:16:24;9.73;;;6.00;;
4102;SDS011;2065;49.790;9.620;2023-02-28T13:18:51;7.70;;;5.50;;
4102;SDS011;2065;49.790;9.620;2023-02-28T13:21:22;12.13;;;7.00;;
4102;SDS011;2065;49.790;9.620;2023-02-28T13:23:58;10.00;;;6.10;;
4102;SDS011;2065;49.790;9.620;2023-02-28T13:29:40;9.00;;;6.00;;
4102;SDS011;2065;49.790;9.620;2023-02-28T13:32:28;7.80;;;6.27;;
4102;SDS011;2065;49.790;9.620;2023-02-28T13:38:12;10.30;;;6.67;;
4102;SDS011;2065;49.790;9.620;2023-02-28T13:40:47;9.70;;;6.03;;
4102;SDS011;2065;49.790;9.620;2023-02-28T13:43:16;10.77;;;6.63;;
4102;SDS011;2065;49.790;9.620;2023-02-28T13:48:38;14.40;;;6.20;;
4102;SDS011;2065;49.790;9.620;2023-02-28T13:54:14;11.30;;;6.83;;
4102;SDS011;2065;49.790;9.620;2023-02-28T13:56:50;9.70;;;6.63;;
4102;SDS011;2065;49.790;9.620;2023-02-28T13:59:26;9.60;;;6.40;;
4102;SDS011;2065;49.790;9.620;2023-02-28T14:02:28;8.60;;;6.13;;
4102;SDS011;2065;49.790;9.620;2023-02-28T14:05:14;9.17;;;5.90;;
4102;SDS011;2065;49.790;9.620;2023-02-28T14:07:44;16.10;;;7.53;;
4102;SDS011;2065;49.790;9.620;2023-02-28T14:10:21;26.03;;;8.10;;
4102;SDS011;2065;49.790;9.620;2023-02-28T14:12:55;17.17;;;9.10;;
4102;SDS011;2065;49.790;9.620;2023-02-28T14:18:28;45.47;;;20.93;;
4102;SDS011;2065;49.790;9.620;2023-02-28T14:20:58;15.17;;;9.27;;
4102;SDS011;2065;49.790;9.620;2023-02-28T14:23:33;16.50;;;10.13;;
4102;SDS011;2065;49.790;9.620;2023-02-28T14:26:12;16.93;;;8.87;;
4102;SDS011;2065;49.790;9.620;2023-02-28T14:28:50;14.03;;;8.30;;
4102;SDS011;2065;49.790;9.620;2023-02-28T14:31:28;10.13;;;6.50;;
4102;SDS011;2065;49.790;9.620;2023-02-28T14:34:12;9.40;;;6.47;;
4102;SDS011;2065;49.790;9.620;2023-02-28T14:36:50;10.27;;;7.03;;
4102;SDS011;2065;49.790;9.620;2023-02-28T14:39:20;10.40;;;6.10;;
4102;SDS011;2065;49.790;9.620;2023-02-28T14:41:49;13.67;;;7.67;;
4102;SDS011;2065;49.790;9.620;2023-02-28T14:44:17;9.30;;;7.10;;
4102;SDS011;2065;49.790;9.620;2023-02-28T14:46:46;10.33;;;7.33;;
4102;SDS011;2065;49.790;9.620;2023-02-28T14:49:18;12.27;;;6.50;;
4102;SDS011;2065;49.790;9.620;2023-02-28T14:51:47;13.97;;;7.03;;
4102;SDS011;2065;49.790;9.620;2023-02-28T14:54:16;17.60;;;11.13;;
4102;SDS011;2065;49.790;9.620;2023-02-28T14:56:49;9.77;;;6.90;;
4102;SDS011;2065;49.790;9.620;2023-02-28T14:59:23;13.70;;;7.80;;
4102;SDS011;2065;49.790;9.620;2023-02-28T15:01:52;11.97;;;6.70;;
4102;SDS011;2065;49.790;9.620;2023-02-28T15:04:35;7.20;;;5.73;;
4102;SDS011;2065;49.790;9.620;2023-02-28T15:07:09;14.70;;;8.10;;
4102;SDS011;2065;49.790;9.620;2023-02-28T15:09:37;14.57;;;8.30;;
4102;SDS011;2065;49.790;9.620;2023-02-28T15:12:04;15.53;;;8.80;;
4102;SDS011;2065;49.790;9.620;2023-02-28T15:14:31;15.70;;;7.40;;
4102;SDS011;2065;49.790;9.620;2023-02-28T15:17:01;13.90;;;8.97;;
4102;SDS011;2065;49.790;9.620;2023-02-28T15:19:32;14.07;;;7.20;;
4102;SDS011;2065;49.790;9.620;2023-02-28T15:22:06;10.07;;;6.70;;
4102;SDS011;2065;49.790;9.620;2023-02-28T15:24:38;10.03;;;6.67;;
4102;SDS011;2065;49.790;9.620;2023-02-28T15:27:11;10.90;;;7.10;;
4102;SDS011;2065;49.790;9.620;2023-02-28T15:29:43;19.63;;;10.70;;
4102;SDS011;2065;49.790;9.620;2023-02-28T15:32:27;12.60;;;8.33;;
4102;SDS011;2065;49.790;9.620;2023-02-28T15:34:57;27.40;;;11.83;;
4102;SDS011;2065;49.790;9.620;2023-02-28T15:37:35;16.20;;;8.37;;
4102;SDS011;2065;49.790;9.620;2023-02-28T15:40:10;18.20;;;12.37;;
4102;SDS011;2065;49.790;9.620;2023-02-28T15:42:39;17.50;;;9.80;;
4102;SDS011;2065;49.790;9.620;2023-02-28T15:47:53;23.60;;;10.90;;
4102;SDS011;2065;49.790;9.620;2023-02-28T15:50:22;20.40;;;10.80;;
4102;SDS011;2065;49.790;9.620;2023-02-28T15:52:49;15.07;;;8.90;;
4102;SDS011;2065;49.790;9.620;2023-02-28T15:55:18;11.97;;;7.80;;
4102;SDS011;2065;49.790;9.620;2023-02-28T15:57:48;7.30;;;6.07;;
4102;SDS011;2065;49.790;9.620;2023-02-28T16:00:19;8.60;;;6.83;;
4102;SDS011;2065;49.790;9.620;2023-02-28T16:02:48;10.77;;;7.00;;
4102;SDS011;2065;49.790;9.620;2023-02-28T16:05:20;12.70;;;7.70;;
4102;SDS011;2065;49.790;9.620;2023-02-28T16:07:56;15.50;;;8.00;;
4102;SDS011;2065;49.790;9.620;2023-02-28T16:10:24;12.83;;;8.70;;